sensor_id;sensor_type;location;lat;lon;timestamp;pressure;altitude;pressure_sealevel;temperature;humidity
3170;BME280;1596;51.558;6.988;2022-07-06T00:01:01;43989.50;;;-143.13;nan
3170;BME280;1596;51.558;6.988;2022-07-06T00:03:29;43971.09;;;-143.13;nan
3170;BME280;1596;51.558;6.988;2022-07-06T00:05:57;43958.81;;;-143.13;nan
3170;BME280;1596;51.558;6.988;2022-07-06T00:08:24;43989.50;;;-143.13;nan
3170;BME280;1596;51.558;6.988;2022-07-06T00:10:52;43958.81;;;-143.13;nan
3170;BME280;1596;51.558;6.988;2022-07-06T00:13:19;43993.59;;;-143.13;nan
3170;BME280;1596;51.558;6.988;2022-07-06T00:15:47;43962.91;;;-143.13;nan
3170;BME280;1596;51.558;6.988;2022-07-06T00:18:16;43991.53;;;-143.13;nan
3170;BME280;1596;51.558;6.988;2022-07-06T00:20:44;43956.78;;;-143.13;nan
3170;BME280;1596;51.558;6.988;2022-07-06T00:23:11;43969.06;;;-143.13;nan
3170;BME280;1596;51.558;6.988;2022-07-06T00:25:39;43973.13;;;-143.13;nan
3170;BME280;1596;51.558;6.988;2022-07-06T00:28:06;43962.91;;;-143.13;nan
3170;BME280;1596;51.558;6.988;2022-07-06T00:30:34;43973.13;;;-143.13;nan
3170;BME280;1596;51.558;6.988;2022-07-06T00:33:02;43969.06;;;-143.13;nan
3170;BME280;1596;51.558;6.988;2022-07-06T00:35:31;43989.50;;;-143.13;nan
3170;BME280;1596;51.558;6.988;2022-07-06T00:37:59;43989.50;;;-143.13;nan
3170;BME280;1596;51.558;6.988;2022-07-06T00:40:27;43967.00;;;-143.13;nan
3170;BME280;1596;51.558;6.988;2022-07-06T00:42:56;43977.22;;;-143.13;nan
3170;BME280;1596;51.558;6.988;2022-07-06T00:45:24;43958.81;;;-143.13;nan
3170;BME280;1596;51.558;6.988;2022-07-06T00:47:52;43960.88;;;-143.13;nan
3170;BME280;1596;51.558;6.988;2022-07-06T00:50:21;43948.59;;;-143.13;nan
3170;BME280;1596;51.558;6.988;2022-07-06T00:52:52;43960.88;;;-143.13;nan
3170;BME280;1596;51.558;6.988;2022-07-06T00:55:23;43950.66;;;-143.13;nan
3170;BME280;1596;51.558;6.988;2022-07-06T00:57:54;43936.34;;;-143.13;nan
3170;BME280;1596;51.558;6.988;2022-07-06T01:00:24;43915.91;;;-143.13;nan
3170;BME280;1596;51.558;6.988;2022-07-06T01:02:54;43922.03;;;-143.13;nan
3170;BME280;1596;51.558;6.988;2022-07-06T01:05:22;43903.63;;;-143.13;nan
3170;BME280;1596;51.558;6.988;2022-07-06T01:07:53;43899.53;;;-143.13;nan
3170;BME280;1596;51.558;6.988;2022-07-06T01:10:22;43897.50;;;-143.13;nan
3170;BME280;1596;51.558;6.988;2022-07-06T01:12:51;43887.28;;;-143.13;nan
3170;BME280;1596;51.558;6.988;2022-07-06T01:15:21;43889.31;;;-143.13;nan
3170;BME280;1596;51.558;6.988;2022-07-06T01:17:51;43860.69;;;-143.13;nan
3170;BME280;1596;51.558;6.988;2022-07-06T01:20:24;43854.56;;;-143.13;nan
3170;BME280;1596;51.558;6.988;2022-07-06T01:22:54;43830.03;;;-143.13;nan
3170;BME280;1596;51.558;6.988;2022-07-06T01:25:23;43862.75;;;-143.13;nan
3170;BME280;1596;51.558;6.988;2022-07-06T01:27:50;43881.16;;;-143.13;nan
3170;BME280;1596;51.558;6.988;2022-07-06T01:30:19;43883.19;;;-143.13;nan
3170;BME280;1596;51.558;6.988;2022-07-06T01:32:47;43895.44;;;-143.13;nan
3170;BME280;1596;51.558;6.988;2022-07-06T01:35:15;43895.44;;;-143.13;nan
3170;BME280;1596;51.558;6.988;2022-07-06T01:37:45;43881.16;;;-143.13;nan
3170;BME280;1596;51.558;6.988;2022-07-06T01:40:13;43852.53;;;-143.13;nan
3170;BME280;1596;51.558;6.988;2022-07-06T01:42:40;43858.66;;;-143.13;nan
3170;BME280;1596;51.558;6.988;2022-07-06T01:45:10;43860.69;;;-143.13;nan
3170;BME280;1596;51.558;6.988;2022-07-06T01:47:38;43848.44;;;-143.13;nan
3170;BME280;1596;51.558;6.988;2022-07-06T01:50:08;43875.00;;;-143.13;nan
3170;BME280;1596;51.558;6.988;2022-07-06T01:52:37;43887.28;;;-143.13;nan
3170;BME280;1596;51.558;6.988;2022-07-06T01:55:08;43828.00;;;-143.13;nan
3170;BME280;1596;51.558;6.988;2022-07-06T01:57:35;43893.41;;;-143.13;nan
3170;BME280;1596;51.558;6.988;2022-07-06T02:00:07;43856.63;;;-143.13;nan
3170;BME280;1596;51.558;6.988;2022-07-06T02:02:35;43840.25;;;-143.13;nan
3170;BME280;1596;51.558;6.988;2022-07-06T02:05:03;43836.16;;;-143.13;nan
3170;BME280;1596;51.558;6.988;2022-07-06T02:07:31;43776.88;;;-143.13;nan
3170;BME280;1596;51.558;6.988;2022-07-06T02:09:58;43783.03;;;-143.13;nan
3170;BME280;1596;51.558;6.988;2022-07-06T02:12:27;43762.56;;;-143.13;nan
3170;BME280;1596;51.558;6.988;2022-07-06T02:14:55;43731.91;;;-143.13;nan
3170;BME280;1596;51.558;6.988;2022-07-06T02:17:22;43748.28;;;-143.13;nan
3170;BME280;1596;51.558;6.988;2022-07-06T02:19:51;43715.56;;;-143.13;nan
3170;BME280;1596;51.558;6.988;2022-07-06T02:22:20;43723.75;;;-143.13;nan
3170;BME280;1596;51.558;6.988;2022-07-06T02:24:47;43711.47;;;-143.13;nan
3170;BME280;1596;51.558;6.988;2022-07-06T02:27:15;43650.16;;;-143.13;nan
3170;BME280;1596;51.558;6.988;2022-07-06T02:29:44;43672.63;;;-143.13;nan
3170;BME280;1596;51.558;6.988;2022-07-06T02:32:11;43652.19;;;-143.13;nan
3170;BME280;1596;51.558;6.988;2022-07-06T02:34:39;43639.94;;;-143.13;nan
3170;BME280;1596;51.558;6.988;2022-07-06T02:37:06;43619.50;;;-143.13;nan
3170;BME280;1596;51.558;6.988;2022-07-06T02:39:34;43617.44;;;-143.13;nan
3170;BME280;1596;51.558;6.988;2022-07-06T02:42:03;43580.66;;;-143.13;nan
3170;BME280;1596;51.558;6.988;2022-07-06T02:44:31;43547.94;;;-143.13;nan
3170;BME280;1596;51.558;6.988;2022-07-06T02:47:00;43527.50;;;-143.13;nan
3170;BME280;1596;51.558;6.988;2022-07-06T02:49:27;43464.13;;;-143.13;nan
3170;BME280;1596;51.558;6.988;2022-07-06T02:51:55;43437.56;;;-143.13;nan
3170;BME280;1596;51.558;6.988;2022-07-06T02:54:22;43406.91;;;-143.13;nan
3170;BME280;1596;51.558;6.988;2022-07-06T02:56:50;43396.69;;;-143.13;nan
3170;BME280;1596;51.558;6.988;2022-07-06T02:59:19;43415.09;;;-143.13;nan
3170;BME280;1596;51.558;6.988;2022-07-06T03:01:47;43390.56;;;-143.13;nan
3170;BME280;1596;51.558;6.988;2022-07-06T03:04:16;43345.59;;;-143.13;nan
3170;BME280;1596;51.558;6.988;2022-07-06T03:06:44;43347.63;;;-143.13;nan
3170;BME280;1596;51.558;6.988;2022-07-06T03:09:11;43347.63;;;-143.13;nan
3170;BME280;1596;51.558;6.988;2022-07-06T03:11:39;43312.88;;;-143.13;nan
3170;BME280;1596;51.558;6.988;2022-07-06T03:14:06;43269.97;;;-143.13;nan
3170;BME280;1596;51.558;6.988;2022-07-06T03:16:34;43251.56;;;-143.13;nan
3170;BME280;1596;51.558;6.988;2022-07-06T03:19:02;43225.00;;;-143.13;nan
3170;BME280;1596;51.558;6.988;2022-07-06T03:21:31;43167.78;;;-143.13;nan
3170;BME280;1596;51.558;6.988;2022-07-06T03:23:59;43153.47;;;-143.13;nan
3170;BME280;1596;51.558;6.988;2022-07-06T03:26:26;43122.81;;;-143.13;nan
3170;BME280;1596;51.558;6.988;2022-07-06T03:28:54;43110.53;;;-143.13;nan
3170;BME280;1596;51.558;6.988;2022-07-06T03:31:22;43106.47;;;-143.13;nan
3170;BME280;1596;51.558;6.988;2022-07-06T03:33:51;43102.38;;;-143.13;nan
3170;BME280;1596;51.558;6.988;2022-07-06T03:36:18;43104.41;;;-143.13;nan
3170;BME280;1596;51.558;6.988;2022-07-06T03:38:47;43071.72;;;-143.13;nan
3170;BME280;1596;51.558;6.988;2022-07-06T03:41:15;43102.38;;;-143.13;nan
3170;BME280;1596;51.558;6.988;2022-07-06T03:43:42;43122.81;;;-143.13;nan
3170;BME280;1596;51.558;6.988;2022-07-06T03:46:10;43088.06;;;-143.13;nan
3170;BME280;1596;51.558;6.988;2022-07-06T03:48:37;43081.94;;;-143.13;nan
3170;BME280;1596;51.558;6.988;2022-07-06T03:51:05;43067.63;;;-143.13;nan
3170;BME280;1596;51.558;6.988;2022-07-06T03:53:33;43073.75;;;-143.13;nan
3170;BME280;1596;51.558;6.988;2022-07-06T03:56:02;43061.50;;;-143.13;nan
3170;BME280;1596;51.558;6.988;2022-07-06T03:58:48;43073.75;;;-143.13;nan
3170;BME280;1596;51.558;6.988;2022-07-06T04:01:15;43086.03;;;-143.13;nan
3170;BME280;1596;51.558;6.988;2022-07-06T04:03:43;43069.66;;;-143.13;nan
3170;BME280;1596;51.558;6.988;2022-07-06T04:06:11;43051.28;;;-143.13;nan
3170;BME280;1596;51.558;6.988;2022-07-06T04:08:40;43071.72;;;-143.13;nan
3170;BME280;1596;51.558;6.988;2022-07-06T04:11:09;43090.09;;;-143.13;nan
3170;BME280;1596;51.558;6.988;2022-07-06T04:13:37;43071.72;;;-143.13;nan
3170;BME280;1596;51.558;6.988;2022-07-06T04:16:06;43126.91;;;-143.13;nan
3170;BME280;1596;51.558;6.988;2022-07-06T04:18:35;43102.38;;;-143.13;nan
3170;BME280;1596;51.558;6.988;2022-07-06T04:21:03;43114.63;;;-143.13;nan
3170;BME280;1596;51.558;6.988;2022-07-06T04:23:31;43157.56;;;-143.13;nan
3170;BME280;1596;51.558;6.988;2022-07-06T04:25:58;43188.22;;;-143.13;nan
3170;BME280;1596;51.558;6.988;2022-07-06T04:28:27;43175.94;;;-143.13;nan
3170;BME280;1596;51.558;6.988;2022-07-06T04:30:55;43196.38;;;-143.13;nan
3170;BME280;1596;51.558;6.988;2022-07-06T04:33:23;43165.72;;;-143.13;nan
3170;BME280;1596;51.558;6.988;2022-07-06T04:35:54;43147.34;;;-143.13;nan
3170;BME280;1596;51.558;6.988;2022-07-06T04:38:22;43182.06;;;-143.13;nan
3170;BME280;1596;51.558;6.988;2022-07-06T04:40:49;43167.78;;;-143.13;nan
3170;BME280;1596;51.558;6.988;2022-07-06T04:43:17;43245.44;;;-143.13;nan
3170;BME280;1596;51.558;6.988;2022-07-06T04:45:46;43233.19;;;-143.13;nan
3170;BME280;1596;51.558;6.988;2022-07-06T04:48:14;43239.31;;;-143.13;nan
3170;BME280;1596;51.558;6.988;2022-07-06T04:50:41;43196.38;;;-143.13;nan
3170;BME280;1596;51.558;6.988;2022-07-06T04:53:09;43233.19;;;-143.13;nan
3170;BME280;1596;51.558;6.988;2022-07-06T04:55:37;43237.25;;;-143.13;nan
3170;BME280;1596;51.558;6.988;2022-07-06T04:58:05;43241.34;;;-143.13;nan
3170;BME280;1596;51.558;6.988;2022-07-06T05:00:33;43180.03;;;-143.13;nan
3170;BME280;1596;51.558;6.988;2022-07-06T05:03:01;43269.97;;;-143.13;nan
3170;BME280;1596;51.558;6.988;2022-07-06T05:05:29;43245.44;;;-143.13;nan
3170;BME280;1596;51.558;6.988;2022-07-06T05:07:57;43272.00;;;-143.13;nan
3170;BME280;1596;51.558;6.988;2022-07-06T05:10:24;43290.41;;;-143.13;nan
3170;BME280;1596;51.558;6.988;2022-07-06T05:12:52;43255.66;;;-143.13;nan
3170;BME280;1596;51.558;6.988;2022-07-06T05:15:21;43290.41;;;-143.13;nan
3170;BME280;1596;51.558;6.988;2022-07-06T05:17:48;43265.88;;;-143.13;nan
3170;BME280;1596;51.558;6.988;2022-07-06T05:20:17;43263.84;;;-143.13;nan
3170;BME280;1596;51.558;6.988;2022-07-06T05:22:45;43259.75;;;-143.13;nan
3170;BME280;1596;51.558;6.988;2022-07-06T05:25:13;43298.59;;;-143.13;nan
3170;BME280;1596;51.558;6.988;2022-07-06T05:27:40;43274.06;;;-143.13;nan
3170;BME280;1596;51.558;6.988;2022-07-06T05:30:09;43267.91;;;-143.13;nan
3170;BME280;1596;51.558;6.988;2022-07-06T05:32:37;43443.69;;;-143.13;nan
3170;BME280;1596;51.558;6.988;2022-07-06T05:35:06;43445.75;;;-143.13;nan
3170;BME280;1596;51.558;6.988;2022-07-06T05:37:36;43425.31;;;-143.13;nan
3170;BME280;1596;51.558;6.988;2022-07-06T05:40:05;43672.63;;;-143.13;nan
3170;BME280;1596;51.558;6.988;2022-07-06T05:42:33;43646.06;;;-143.13;nan
3170;BME280;1596;51.558;6.988;2022-07-06T05:45:00;43744.19;;;-143.13;nan
3170;BME280;1596;51.558;6.988;2022-07-06T05:47:29;43783.03;;;-143.13;nan
3170;BME280;1596;51.558;6.988;2022-07-06T05:50:14;43772.81;;;-143.13;nan
3170;BME280;1596;51.558;6.988;2022-07-06T05:52:55;43787.09;;;-143.13;nan
3170;BME280;1596;51.558;6.988;2022-07-06T05:55:25;43785.06;;;-143.13;nan
3170;BME280;1596;51.558;6.988;2022-07-06T05:57:53;43760.53;;;-143.13;nan
3170;BME280;1596;51.558;6.988;2022-07-06T06:00:22;43754.41;;;-143.13;nan
3170;BME280;1596;51.558;6.988;2022-07-06T06:02:50;43793.25;;;-143.13;nan
3170;BME280;1596;51.558;6.988;2022-07-06T06:05:20;43846.41;;;-143.13;nan
3170;BME280;1596;51.558;6.988;2022-07-06T06:07:49;43889.31;;;-143.13;nan
3170;BME280;1596;51.558;6.988;2022-07-06T06:10:19;43889.31;;;-143.13;nan
3170;BME280;1596;51.558;6.988;2022-07-06T06:12:48;43938.38;;;-143.13;nan
3170;BME280;1596;51.558;6.988;2022-07-06T06:15:16;43909.75;;;-143.13;nan
3170;BME280;1596;51.558;6.988;2022-07-06T06:17:44;43872.97;;;-143.13;nan
3170;BME280;1596;51.558;6.988;2022-07-06T06:20:14;43919.97;;;-143.13;nan
3170;BME280;1596;51.558;6.988;2022-07-06T06:22:47;43956.78;;;-143.13;nan
3170;BME280;1596;51.558;6.988;2022-07-06T06:25:20;43928.16;;;-143.13;nan
3170;BME280;1596;51.558;6.988;2022-07-06T06:27:48;43924.06;;;-143.13;nan
3170;BME280;1596;51.558;6.988;2022-07-06T06:30:16;43915.91;;;-143.13;nan
3170;BME280;1596;51.558;6.988;2022-07-06T06:32:43;43952.69;;;-143.13;nan
3170;BME280;1596;51.558;6.988;2022-07-06T06:35:12;44050.81;;;-143.13;nan
3170;BME280;1596;51.558;6.988;2022-07-06T06:37:39;44030.38;;;-143.13;nan
3170;BME280;1596;51.558;6.988;2022-07-06T06:40:10;44030.38;;;-143.13;nan
3170;BME280;1596;51.558;6.988;2022-07-06T06:42:40;44085.56;;;-143.13;nan
3170;BME280;1596;51.558;6.988;2022-07-06T06:45:09;44089.66;;;-143.13;nan
3170;BME280;1596;51.558;6.988;2022-07-06T06:47:37;44081.50;;;-143.13;nan
3170;BME280;1596;51.558;6.988;2022-07-06T06:50:06;44034.47;;;-143.13;nan
3170;BME280;1596;51.558;6.988;2022-07-06T06:52:34;44011.97;;;-143.13;nan
3170;BME280;1596;51.558;6.988;2022-07-06T06:55:01;43989.50;;;-143.13;nan
3170;BME280;1596;51.558;6.988;2022-07-06T06:57:31;44069.22;;;-143.13;nan
3170;BME280;1596;51.558;6.988;2022-07-06T06:59:58;44081.50;;;-143.13;nan
3170;BME280;1596;51.558;6.988;2022-07-06T07:02:26;44151.00;;;-143.13;nan
3170;BME280;1596;51.558;6.988;2022-07-06T07:04:54;44134.66;;;-143.13;nan
3170;BME280;1596;51.558;6.988;2022-07-06T07:07:22;44126.47;;;-143.13;nan
3170;BME280;1596;51.558;6.988;2022-07-06T07:09:50;44208.25;;;-143.13;nan
3170;BME280;1596;51.558;6.988;2022-07-06T07:12:18;44206.19;;;-143.13;nan
3170;BME280;1596;51.558;6.988;2022-07-06T07:14:47;44200.06;;;-143.13;nan
3170;BME280;1596;51.558;6.988;2022-07-06T07:17:15;44195.97;;;-143.13;nan
3170;BME280;1596;51.558;6.988;2022-07-06T07:19:43;44181.66;;;-143.13;nan
3170;BME280;1596;51.558;6.988;2022-07-06T07:22:11;44226.66;;;-143.13;nan
3170;BME280;1596;51.558;6.988;2022-07-06T07:24:39;44247.09;;;-143.13;nan
3170;BME280;1596;51.558;6.988;2022-07-06T07:27:06;44269.56;;;-143.13;nan
3170;BME280;1596;51.558;6.988;2022-07-06T07:29:34;44208.25;;;-143.13;nan
3170;BME280;1596;51.558;6.988;2022-07-06T07:32:05;44283.88;;;-143.13;nan
3170;BME280;1596;51.558;6.988;2022-07-06T07:34:34;44245.03;;;-143.13;nan
3170;BME280;1596;51.558;6.988;2022-07-06T07:37:02;44298.19;;;-143.13;nan
3170;BME280;1596;51.558;6.988;2022-07-06T07:39:30;44320.69;;;-143.13;nan
3170;BME280;1596;51.558;6.988;2022-07-06T07:41:58;44365.66;;;-143.13;nan
3170;BME280;1596;51.558;6.988;2022-07-06T07:44:25;44355.44;;;-143.13;nan
3170;BME280;1596;51.558;6.988;2022-07-06T07:46:53;44474.03;;;-143.13;nan
3170;BME280;1596;51.558;6.988;2022-07-06T07:49:22;44410.66;;;-143.13;nan
3170;BME280;1596;51.558;6.988;2022-07-06T07:51:49;44472.00;;;-143.13;nan
3170;BME280;1596;51.558;6.988;2022-07-06T07:54:17;44388.16;;;-143.13;nan
3170;BME280;1596;51.558;6.988;2022-07-06T07:56:45;44373.84;;;-143.13;nan
3170;BME280;1596;51.558;6.988;2022-07-06T07:59:12;44427.00;;;-143.13;nan
3170;BME280;1596;51.558;6.988;2022-07-06T08:01:40;44398.38;;;-143.13;nan
3170;BME280;1596;51.558;6.988;2022-07-06T08:04:07;44384.06;;;-143.13;nan
3170;BME280;1596;51.558;6.988;2022-07-06T08:06:36;44408.59;;;-143.13;nan
3170;BME280;1596;51.558;6.988;2022-07-06T08:09:03;44467.91;;;-143.13;nan
3170;BME280;1596;51.558;6.988;2022-07-06T08:11:33;44410.66;;;-143.13;nan
3170;BME280;1596;51.558;6.988;2022-07-06T08:14:00;44429.06;;;-143.13;nan
3170;BME280;1596;51.558;6.988;2022-07-06T08:16:29;44382.03;;;-143.13;nan
3170;BME280;1596;51.558;6.988;2022-07-06T08:18:57;44443.38;;;-143.13;nan
3170;BME280;1596;51.558;6.988;2022-07-06T08:21:25;44418.84;;;-143.13;nan
3170;BME280;1596;51.558;6.988;2022-07-06T08:23:55;44459.72;;;-143.13;nan
3170;BME280;1596;51.558;6.988;2022-07-06T08:26:24;44369.75;;;-143.13;nan
3170;BME280;1596;51.558;6.988;2022-07-06T08:28:51;44355.44;;;-143.13;nan
3170;BME280;1596;51.558;6.988;2022-07-06T08:31:20;44308.41;;;-143.13;nan
3170;BME280;1596;51.558;6.988;2022-07-06T08:33:48;44402.47;;;-143.13;nan
3170;BME280;1596;51.558;6.988;2022-07-06T08:36:15;44480.16;;;-143.13;nan
3170;BME280;1596;51.558;6.988;2022-07-06T08:38:42;44484.25;;;-143.13;nan
3170;BME280;1596;51.558;6.988;2022-07-06T08:41:13;44496.53;;;-143.13;nan
3170;BME280;1596;51.558;6.988;2022-07-06T08:43:42;44549.69;;;-143.13;nan
3170;BME280;1596;51.558;6.988;2022-07-06T08:46:13;44539.47;;;-143.13;nan
3170;BME280;1596;51.558;6.988;2022-07-06T08:48:41;44504.69;;;-143.13;nan
3170;BME280;1596;51.558;6.988;2022-07-06T08:51:09;44277.75;;;-143.13;nan
3170;BME280;1596;51.558;6.988;2022-07-06T08:53:42;44441.31;;;-143.13;nan
3170;BME280;1596;51.558;6.988;2022-07-06T08:56:12;44476.06;;;-143.13;nan
3170;BME280;1596;51.558;6.988;2022-07-06T08:58:40;44561.94;;;-143.13;nan
3170;BME280;1596;51.558;6.988;2022-07-06T09:01:09;44553.78;;;-143.13;nan
3170;BME280;1596;51.558;6.988;2022-07-06T09:03:40;44566.03;;;-143.13;nan
3170;BME280;1596;51.558;6.988;2022-07-06T09:06:09;44586.50;;;-143.13;nan
3170;BME280;1596;51.558;6.988;2022-07-06T09:08:37;44572.19;;;-143.13;nan
3170;BME280;1596;51.558;6.988;2022-07-06T09:11:05;44512.88;;;-143.13;nan
3170;BME280;1596;51.558;6.988;2022-07-06T09:13:35;44439.28;;;-143.13;nan
3170;BME280;1596;51.558;6.988;2022-07-06T09:16:11;44500.63;;;-143.13;nan
3170;BME280;1596;51.558;6.988;2022-07-06T09:18:40;44639.66;;;-143.13;nan
3170;BME280;1596;51.558;6.988;2022-07-06T09:21:11;44641.69;;;-143.13;nan
3170;BME280;1596;51.558;6.988;2022-07-06T09:23:54;44737.81;;;-143.13;nan
3170;BME280;1596;51.558;6.988;2022-07-06T09:26:22;44774.59;;;-143.13;nan
3170;BME280;1596;51.558;6.988;2022-07-06T09:28:55;44717.34;;;-143.13;nan
3170;BME280;1596;51.558;6.988;2022-07-06T09:31:26;44615.13;;;-143.13;nan
3170;BME280;1596;51.558;6.988;2022-07-06T09:33:55;44608.97;;;-143.13;nan
3170;BME280;1596;51.558;6.988;2022-07-06T09:36:43;44543.56;;;-143.13;nan
3170;BME280;1596;51.558;6.988;2022-07-06T09:39:21;44672.38;;;-143.13;nan
3170;BME280;1596;51.558;6.988;2022-07-06T09:41:54;44666.22;;;-143.13;nan
3170;BME280;1596;51.558;6.988;2022-07-06T09:44:27;44643.75;;;-143.13;nan
3170;BME280;1596;51.558;6.988;2022-07-06T09:46:58;44688.72;;;-143.13;nan
3170;BME280;1596;51.558;6.988;2022-07-06T09:49:28;44748.03;;;-143.13;nan
3170;BME280;1596;51.558;6.988;2022-07-06T09:51:59;44741.88;;;-143.13;nan
3170;BME280;1596;51.558;6.988;2022-07-06T09:54:29;44703.03;;;-143.13;nan
3170;BME280;1596;51.558;6.988;2022-07-06T09:56:59;44635.56;;;-143.13;nan
3170;BME280;1596;51.558;6.988;2022-07-06T09:59:31;44774.59;;;-143.13;nan
3170;BME280;1596;51.558;6.988;2022-07-06T10:02:04;44725.53;;;-143.13;nan
3170;BME280;1596;51.558;6.988;2022-07-06T10:04:34;44670.31;;;-143.13;nan
3170;BME280;1596;51.558;6.988;2022-07-06T10:07:06;44764.38;;;-143.13;nan
3170;BME280;1596;51.558;6.988;2022-07-06T10:09:35;44854.34;;;-143.13;nan
3170;BME280;1596;51.558;6.988;2022-07-06T10:12:05;44856.41;;;-143.13;nan
3170;BME280;1596;51.558;6.988;2022-07-06T10:14:41;44887.06;;;-143.13;nan
3170;BME280;1596;51.558;6.988;2022-07-06T10:17:10;44835.94;;;-143.13;nan
3170;BME280;1596;51.558;6.988;2022-07-06T10:19:40;44848.22;;;-143.13;nan
3170;BME280;1596;51.558;6.988;2022-07-06T10:22:08;44856.41;;;-143.13;nan
3170;BME280;1596;51.558;6.988;2022-07-06T10:24:37;44950.47;;;-143.13;nan
3170;BME280;1596;51.558;6.988;2022-07-06T10:27:12;44946.38;;;-143.13;nan
3170;BME280;1596;51.558;6.988;2022-07-06T10:29:43;44848.22;;;-143.13;nan
3170;BME280;1596;51.558;6.988;2022-07-06T10:32:10;44889.13;;;-143.13;nan
3170;BME280;1596;51.558;6.988;2022-07-06T10:34:38;44880.94;;;-143.13;nan
3170;BME280;1596;51.558;6.988;2022-07-06T10:37:06;44889.13;;;-143.13;nan
3170;BME280;1596;51.558;6.988;2022-07-06T10:39:48;44874.81;;;-143.13;nan
3170;BME280;1596;51.558;6.988;2022-07-06T10:42:43;44854.34;;;-143.13;nan
3170;BME280;1596;51.558;6.988;2022-07-06T10:45:52;44852.31;;;-143.13;nan
3170;BME280;1596;51.558;6.988;2022-07-06T10:48:21;44840.03;;;-143.13;nan
3170;BME280;1596;51.558;6.988;2022-07-06T10:50:52;44852.31;;;-143.13;nan
3170;BME280;1596;51.558;6.988;2022-07-06T10:53:24;44762.34;;;-143.13;nan
3170;BME280;1596;51.558;6.988;2022-07-06T10:55:54;44807.31;;;-143.13;nan
3170;BME280;1596;51.558;6.988;2022-07-06T10:58:40;44842.09;;;-143.13;nan
3170;BME280;1596;51.558;6.988;2022-07-06T11:01:15;44942.28;;;-143.13;nan
3170;BME280;1596;51.558;6.988;2022-07-06T11:03:44;44864.56;;;-143.13;nan
3170;BME280;1596;51.558;6.988;2022-07-06T11:06:16;44930.00;;;-143.13;nan
3170;BME280;1596;51.558;6.988;2022-07-06T11:08:51;44893.22;;;-143.13;nan
3170;BME280;1596;51.558;6.988;2022-07-06T11:11:25;44932.06;;;-143.13;nan
3170;BME280;1596;51.558;6.988;2022-07-06T11:14:06;44934.09;;;-143.13;nan
3170;BME280;1596;51.558;6.988;2022-07-06T11:16:38;44956.59;;;-143.13;nan
3170;BME280;1596;51.558;6.988;2022-07-06T11:19:11;44893.22;;;-143.13;nan
3170;BME280;1596;51.558;6.988;2022-07-06T11:21:44;44913.66;;;-143.13;nan
3170;BME280;1596;51.558;6.988;2022-07-06T11:24:16;44891.16;;;-143.13;nan
3170;BME280;1596;51.558;6.988;2022-07-06T11:26:46;44962.72;;;-143.13;nan
3170;BME280;1596;51.558;6.988;2022-07-06T11:29:16;44866.63;;;-143.13;nan
3170;BME280;1596;51.558;6.988;2022-07-06T11:31:50;44835.94;;;-143.13;nan
3170;BME280;1596;51.558;6.988;2022-07-06T11:34:22;44940.25;;;-143.13;nan
3170;BME280;1596;51.558;6.988;2022-07-06T11:36:55;45030.22;;;-143.13;nan
3170;BME280;1596;51.558;6.988;2022-07-06T11:39:26;44958.66;;;-143.13;nan
3170;BME280;1596;51.558;6.988;2022-07-06T11:41:55;44831.88;;;-143.13;nan
3170;BME280;1596;51.558;6.988;2022-07-06T11:44:22;44770.50;;;-143.13;nan
3170;BME280;1596;51.558;6.988;2022-07-06T11:46:51;44764.38;;;-143.13;nan
3170;BME280;1596;51.558;6.988;2022-07-06T11:49:21;44858.44;;;-143.13;nan
3170;BME280;1596;51.558;6.988;2022-07-06T11:51:49;44848.22;;;-143.13;nan
3170;BME280;1596;51.558;6.988;2022-07-06T11:54:19;44719.41;;;-143.13;nan
3170;BME280;1596;51.558;6.988;2022-07-06T11:56:50;44590.56;;;-143.13;nan
3170;BME280;1596;51.558;6.988;2022-07-06T11:59:22;44611.03;;;-143.13;nan
3170;BME280;1596;51.558;6.988;2022-07-06T12:02:00;44674.41;;;-143.13;nan
3170;BME280;1596;51.558;6.988;2022-07-06T12:04:28;44813.47;;;-143.13;nan
3170;BME280;1596;51.558;6.988;2022-07-06T12:07:00;44938.19;;;-143.13;nan
3170;BME280;1596;51.558;6.988;2022-07-06T12:09:31;44889.13;;;-143.13;nan
3170;BME280;1596;51.558;6.988;2022-07-06T12:11:59;44848.22;;;-143.13;nan
3170;BME280;1596;51.558;6.988;2022-07-06T12:14:29;44870.72;;;-143.13;nan
3170;BME280;1596;51.558;6.988;2022-07-06T12:17:05;44790.97;;;-143.13;nan
3170;BME280;1596;51.558;6.988;2022-07-06T12:19:34;44782.78;;;-143.13;nan
3170;BME280;1596;51.558;6.988;2022-07-06T12:22:04;44803.22;;;-143.13;nan
3170;BME280;1596;51.558;6.988;2022-07-06T12:24:34;44664.19;;;-143.13;nan
3170;BME280;1596;51.558;6.988;2022-07-06T12:27:15;44815.50;;;-143.13;nan
3170;BME280;1596;51.558;6.988;2022-07-06T12:29:44;44850.25;;;-143.13;nan
3170;BME280;1596;51.558;6.988;2022-07-06T12:32:18;44864.56;;;-143.13;nan
3170;BME280;1596;51.558;6.988;2022-07-06T12:35:03;44782.78;;;-143.13;nan
3170;BME280;1596;51.558;6.988;2022-07-06T12:37:31;44733.72;;;-143.13;nan
3170;BME280;1596;51.558;6.988;2022-07-06T12:39:59;44786.88;;;-143.13;nan
3170;BME280;1596;51.558;6.988;2022-07-06T12:42:26;44770.50;;;-143.13;nan
3170;BME280;1596;51.558;6.988;2022-07-06T12:44:55;44795.06;;;-143.13;nan
3170;BME280;1596;51.558;6.988;2022-07-06T12:47:24;44782.78;;;-143.13;nan
3170;BME280;1596;51.558;6.988;2022-07-06T12:50:06;44729.63;;;-143.13;nan
3170;BME280;1596;51.558;6.988;2022-07-06T12:52:37;44660.09;;;-143.13;nan
3170;BME280;1596;51.558;6.988;2022-07-06T12:55:07;44750.06;;;-143.13;nan
3170;BME280;1596;51.558;6.988;2022-07-06T12:57:46;44680.53;;;-143.13;nan
3170;BME280;1596;51.558;6.988;2022-07-06T13:00:18;44891.16;;;-143.13;nan
3170;BME280;1596;51.558;6.988;2022-07-06T13:02:51;44835.94;;;-143.13;nan
3170;BME280;1596;51.558;6.988;2022-07-06T13:05:26;44813.47;;;-143.13;nan
3170;BME280;1596;51.558;6.988;2022-07-06T13:07:56;44870.72;;;-143.13;nan
3170;BME280;1596;51.558;6.988;2022-07-06T13:10:26;44938.19;;;-143.13;nan
3170;BME280;1596;51.558;6.988;2022-07-06T13:12:55;44670.31;;;-143.13;nan
3170;BME280;1596;51.558;6.988;2022-07-06T13:15:23;44825.72;;;-143.13;nan
3170;BME280;1596;51.558;6.988;2022-07-06T13:17:52;45048.63;;;-143.13;nan
3170;BME280;1596;51.558;6.988;2022-07-06T13:20:20;44917.75;;;-143.13;nan
3170;BME280;1596;51.558;6.988;2022-07-06T13:22:47;44864.56;;;-143.13;nan
3170;BME280;1596;51.558;6.988;2022-07-06T13:25:15;44862.53;;;-143.13;nan
3170;BME280;1596;51.558;6.988;2022-07-06T13:27:42;44795.06;;;-143.13;nan
3170;BME280;1596;51.558;6.988;2022-07-06T13:30:11;44848.22;;;-143.13;nan
3170;BME280;1596;51.558;6.988;2022-07-06T13:32:39;44930.00;;;-143.13;nan
3170;BME280;1596;51.558;6.988;2022-07-06T13:35:09;44938.19;;;-143.13;nan